sensor_id;sensor_type;location;lat;lon;timestamp;pressure;altitude;pressure_sealevel;temperature;humidity
30598;BME280;17365;48.878;8.334;2023-03-11T00:01:22;99196.56;;;3.49;77.62
30598;BME280;17365;48.878;8.334;2023-03-11T00:03:48;99209.28;;;3.40;77.89
30598;BME280;17365;48.878;8.334;2023-03-11T00:06:13;99205.94;;;3.47;77.52
30598;BME280;17365;48.878;8.334;2023-03-11T00:08:38;99213.69;;;3.50;78.38
30598;BME280;17365;48.878;8.334;2023-03-11T00:11:03;99222.34;;;3.58;77.75
30598;BME280;17365;48.878;8.334;2023-03-11T00:13:29;99211.41;;;3.70;77.84
30598;BME280;17365;48.878;8.334;2023-03-11T00:15:54;99218.19;;;3.65;78.05
30598;BME280;17365;48.878;8.334;2023-03-11T00:18:21;99217.50;;;3.75;77.27
30598;BME280;17365;48.878;8.334;2023-03-11T00:20:49;99211.50;;;3.74;77.68
30598;BME280;17365;48.878;8.334;2023-03-11T00:23:15;99218.75;;;3.47;78.21
30598;BME280;17365;48.878;8.334;2023-03-11T00:25:42;99209.47;;;3.54;78.46
30598;BME280;17365;48.878;8.334;2023-03-11T00:28:07;99216.44;;;3.09;79.31
30598;BME280;17365;48.878;8.334;2023-03-11T00:30:34;99213.31;;;3.27;79.79
30598;BME280;17365;48.878;8.334;2023-03-11T00:32:59;99219.81;;;3.60;78.70
30598;BME280;17365;48.878;8.334;2023-03-11T00:35:26;99222.09;;;3.41;78.22
30598;BME280;17365;48.878;8.334;2023-03-11T00:37:53;99228.59;;;3.21;78.87
30598;BME280;17365;48.878;8.334;2023-03-11T00:40:19;99223.28;;;3.10;79.20
30598;BME280;17365;48.878;8.334;2023-03-11T00:42:44;99225.00;;;3.10;79.91
30598;BME280;17365;48.878;8.334;2023-03-11T00:45:10;99219.13;;;3.17;80.20
30598;BME280;17365;48.878;8.334;2023-03-11T00:47:35;99224.69;;;2.93;80.55
30598;BME280;17365;48.878;8.334;2023-03-11T00:50:01;99231.50;;;2.92;81.33
30598;BME280;17365;48.878;8.334;2023-03-11T00:52:26;99230.47;;;2.83;82.12
30598;BME280;17365;48.878;8.334;2023-03-11T00:54:52;99238.75;;;3.16;81.37
30598;BME280;17365;48.878;8.334;2023-03-11T00:57:18;99241.91;;;3.02;80.91
30598;BME280;17365;48.878;8.334;2023-03-11T00:59:43;99247.81;;;2.96;81.78
30598;BME280;17365;48.878;8.334;2023-03-11T01:02:08;99250.34;;;2.95;81.80
30598;BME280;17365;48.878;8.334;2023-03-11T01:04:33;99242.81;;;3.04;81.95
30598;BME280;17365;48.878;8.334;2023-03-11T01:06:58;99236.78;;;3.00;80.50
30598;BME280;17365;48.878;8.334;2023-03-11T01:09:24;99240.31;;;3.07;80.68
30598;BME280;17365;48.878;8.334;2023-03-11T01:11:49;99254.19;;;3.18;80.48
30598;BME280;17365;48.878;8.334;2023-03-11T01:14:14;99254.22;;;3.19;80.32
30598;BME280;17365;48.878;8.334;2023-03-11T01:16:39;99259.69;;;2.92;81.73
30598;BME280;17365;48.878;8.334;2023-03-11T01:19:04;99260.72;;;3.02;81.70
30598;BME280;17365;48.878;8.334;2023-03-11T01:21:30;99292.66;;;3.19;80.82
30598;BME280;17365;48.878;8.334;2023-03-11T01:23:55;99284.63;;;3.03;80.11
30598;BME280;17365;48.878;8.334;2023-03-11T01:26:20;99286.34;;;3.02;81.35
30598;BME280;17365;48.878;8.334;2023-03-11T01:28:46;99280.94;;;2.87;80.49
30598;BME280;17365;48.878;8.334;2023-03-11T01:31:12;99265.19;;;3.12;79.43
30598;BME280;17365;48.878;8.334;2023-03-11T01:33:37;99269.94;;;2.92;78.54
30598;BME280;17365;48.878;8.334;2023-03-11T01:36:02;99281.97;;;2.97;78.71
30598;BME280;17365;48.878;8.334;2023-03-11T01:38:27;99277.75;;;2.99;78.52
30598;BME280;17365;48.878;8.334;2023-03-11T01:40:53;99269.06;;;2.92;78.43
30598;BME280;17365;48.878;8.334;2023-03-11T01:43:38;99271.84;;;3.04;76.93
30598;BME280;17365;48.878;8.334;2023-03-11T01:48:50;99263.63;;;2.74;75.72
30598;BME280;17365;48.878;8.334;2023-03-11T01:51:16;99276.84;;;2.97;75.72
30598;BME280;17365;48.878;8.334;2023-03-11T01:53:43;99286.03;;;2.85;74.54
30598;BME280;17365;48.878;8.334;2023-03-11T01:56:09;99289.38;;;2.83;74.52
30598;BME280;17365;48.878;8.334;2023-03-11T01:58:35;99292.97;;;2.91;74.12
30598;BME280;17365;48.878;8.334;2023-03-11T02:01:01;99298.47;;;3.11;74.16
30598;BME280;17365;48.878;8.334;2023-03-11T02:03:31;99285.75;;;3.17;74.69
30598;BME280;17365;48.878;8.334;2023-03-11T02:05:56;99294.91;;;3.04;73.24
30598;BME280;17365;48.878;8.334;2023-03-11T02:08:23;99287.03;;;2.93;73.46
30598;BME280;17365;48.878;8.334;2023-03-11T02:10:49;99289.94;;;2.68;73.27
30598;BME280;17365;48.878;8.334;2023-03-11T02:13:16;99294.44;;;2.80;74.29
30598;BME280;17365;48.878;8.334;2023-03-11T02:15:41;99282.72;;;2.92;73.86
30598;BME280;17365;48.878;8.334;2023-03-11T02:18:07;99286.56;;;2.69;73.88
30598;BME280;17365;48.878;8.334;2023-03-11T02:23:01;99282.81;;;2.52;74.92
30598;BME280;17365;48.878;8.334;2023-03-11T02:28:11;99261.75;;;2.24;74.88
30598;BME280;17365;48.878;8.334;2023-03-11T02:30:36;99265.25;;;2.28;76.04
30598;BME280;17365;48.878;8.334;2023-03-11T02:33:03;99271.97;;;2.24;75.23
30598;BME280;17365;48.878;8.334;2023-03-11T02:35:28;99268.34;;;2.15;75.68
30598;BME280;17365;48.878;8.334;2023-03-11T02:37:55;99254.03;;;2.23;75.95
30598;BME280;17365;48.878;8.334;2023-03-11T02:42:46;99244.72;;;2.26;76.84
30598;BME280;17365;48.878;8.334;2023-03-11T02:45:12;99260.44;;;2.43;76.20
30598;BME280;17365;48.878;8.334;2023-03-11T02:47:38;99266.16;;;2.31;75.91
30598;BME280;17365;48.878;8.334;2023-03-11T02:50:05;99273.50;;;2.57;75.82
30598;BME280;17365;48.878;8.334;2023-03-11T02:52:31;99277.66;;;2.50;75.70
30598;BME280;17365;48.878;8.334;2023-03-11T02:54:57;99279.34;;;2.50;76.34
30598;BME280;17365;48.878;8.334;2023-03-11T02:57:22;99290.47;;;2.52;75.86
30598;BME280;17365;48.878;8.334;2023-03-11T02:59:47;99284.75;;;2.63;76.04
30598;BME280;17365;48.878;8.334;2023-03-11T03:02:12;99286.75;;;2.38;76.53
30598;BME280;17365;48.878;8.334;2023-03-11T03:04:38;99276.19;;;2.22;76.64
30598;BME280;17365;48.878;8.334;2023-03-11T03:07:03;99282.22;;;2.24;77.13
30598;BME280;17365;48.878;8.334;2023-03-11T03:09:28;99285.47;;;2.17;77.30
30598;BME280;17365;48.878;8.334;2023-03-11T03:11:53;99274.34;;;2.15;78.08
30598;BME280;17365;48.878;8.334;2023-03-11T03:14:18;99265.88;;;2.18;77.81
30598;BME280;17365;48.878;8.334;2023-03-11T03:16:44;99275.94;;;2.10;78.13
30598;BME280;17365;48.878;8.334;2023-03-11T03:19:09;99255.53;;;2.13;77.52
30598;BME280;17365;48.878;8.334;2023-03-11T03:21:34;99262.00;;;1.97;77.25
30598;BME280;17365;48.878;8.334;2023-03-11T03:23:59;99260.66;;;2.13;77.08
30598;BME280;17365;48.878;8.334;2023-03-11T03:26:24;99275.81;;;2.04;76.45
30598;BME280;17365;48.878;8.334;2023-03-11T03:28:50;99291.69;;;1.91;76.77
30598;BME280;17365;48.878;8.334;2023-03-11T03:31:15;99286.06;;;2.04;76.31
30598;BME280;17365;48.878;8.334;2023-03-11T03:33:40;99293.31;;;2.25;75.95
30598;BME280;17365;48.878;8.334;2023-03-11T03:36:06;99304.25;;;2.18;75.47
30598;BME280;17365;48.878;8.334;2023-03-11T03:38:32;99311.97;;;2.19;75.44
30598;BME280;17365;48.878;8.334;2023-03-11T03:40:57;99313.34;;;2.05;76.36
30598;BME280;17365;48.878;8.334;2023-03-11T03:43:22;99318.38;;;2.02;76.28
30598;BME280;17365;48.878;8.334;2023-03-11T03:45:57;99314.31;;;2.10;75.75
30598;BME280;17365;48.878;8.334;2023-03-11T03:48:23;99325.94;;;1.97;77.24
30598;BME280;17365;48.878;8.334;2023-03-11T03:50:48;99328.69;;;2.05;76.03
30598;BME280;17365;48.878;8.334;2023-03-11T03:53:13;99326.31;;;1.77;77.68
30598;BME280;17365;48.878;8.334;2023-03-11T03:55:38;99330.75;;;1.84;77.36
30598;BME280;17365;48.878;8.334;2023-03-11T03:58:04;99318.19;;;1.93;76.72
30598;BME280;17365;48.878;8.334;2023-03-11T04:00:29;99325.66;;;1.85;76.44
30598;BME280;17365;48.878;8.334;2023-03-11T04:02:54;99322.84;;;1.74;77.66
30598;BME280;17365;48.878;8.334;2023-03-11T04:05:19;99323.16;;;1.87;77.69
30598;BME280;17365;48.878;8.334;2023-03-11T04:07:44;99332.53;;;1.88;78.31
30598;BME280;17365;48.878;8.334;2023-03-11T04:10:11;99333.09;;;1.74;79.01
30598;BME280;17365;48.878;8.334;2023-03-11T04:12:37;99328.00;;;1.76;79.39
30598;BME280;17365;48.878;8.334;2023-03-11T04:15:02;99335.19;;;1.58;79.71
30598;BME280;17365;48.878;8.334;2023-03-11T04:17:27;99335.28;;;1.59;79.81
30598;BME280;17365;48.878;8.334;2023-03-11T04:19:53;99335.94;;;1.52;80.27
30598;BME280;17365;48.878;8.334;2023-03-11T04:22:18;99332.06;;;1.68;79.97
30598;BME280;17365;48.878;8.334;2023-03-11T04:24:43;99318.56;;;1.39;80.56
30598;BME280;17365;48.878;8.334;2023-03-11T04:27:08;99326.16;;;1.04;82.80
30598;BME280;17365;48.878;8.334;2023-03-11T04:29:33;99316.13;;;1.12;83.09
30598;BME280;17365;48.878;8.334;2023-03-11T04:31:59;99324.81;;;1.17;82.78
30598;BME280;17365;48.878;8.334;2023-03-11T04:34:24;99327.19;;;1.11;82.54
30598;BME280;17365;48.878;8.334;2023-03-11T04:36:52;99331.09;;;0.98;83.21
30598;BME280;17365;48.878;8.334;2023-03-11T04:39:18;99334.66;;;1.03;83.36
30598;BME280;17365;48.878;8.334;2023-03-11T04:41:43;99324.84;;;1.19;82.49
30598;BME280;17365;48.878;8.334;2023-03-11T04:44:08;99330.50;;;1.07;82.24
30598;BME280;17365;48.878;8.334;2023-03-11T04:46:33;99338.16;;;1.07;82.54
30598;BME280;17365;48.878;8.334;2023-03-11T04:48:59;99340.75;;;1.08;82.14
30598;BME280;17365;48.878;8.334;2023-03-11T04:51:24;99345.19;;;1.15;82.00
30598;BME280;17365;48.878;8.334;2023-03-11T04:53:49;99335.56;;;1.37;81.52
30598;BME280;17365;48.878;8.334;2023-03-11T04:56:14;99344.09;;;1.37;80.46
30598;BME280;17365;48.878;8.334;2023-03-11T04:58:39;99337.78;;;1.25;81.75
30598;BME280;17365;48.878;8.334;2023-03-11T05:01:04;99344.91;;;1.36;81.00
30598;BME280;17365;48.878;8.334;2023-03-11T05:03:30;99342.56;;;1.45;80.55
30598;BME280;17365;48.878;8.334;2023-03-11T05:05:55;99348.41;;;1.40;80.97
30598;BME280;17365;48.878;8.334;2023-03-11T05:08:21;99346.50;;;1.33;80.58
30598;BME280;17365;48.878;8.334;2023-03-11T05:10:46;99343.88;;;1.30;81.09
30598;BME280;17365;48.878;8.334;2023-03-11T05:13:11;99355.31;;;1.12;81.41
30598;BME280;17365;48.878;8.334;2023-03-11T05:15:36;99356.31;;;1.17;81.86
30598;BME280;17365;48.878;8.334;2023-03-11T05:18:02;99358.06;;;1.19;82.09
30598;BME280;17365;48.878;8.334;2023-03-11T05:20:27;99352.56;;;1.05;82.84
30598;BME280;17365;48.878;8.334;2023-03-11T05:22:53;99359.53;;;1.10;82.84
30598;BME280;17365;48.878;8.334;2023-03-11T05:25:18;99356.53;;;1.25;81.99
30598;BME280;17365;48.878;8.334;2023-03-11T05:27:43;99355.81;;;0.99;83.78
30598;BME280;17365;48.878;8.334;2023-03-11T05:30:08;99349.41;;;0.83;84.26
30598;BME280;17365;48.878;8.334;2023-03-11T05:32:34;99361.41;;;0.86;84.78
30598;BME280;17365;48.878;8.334;2023-03-11T05:34:59;99359.47;;;0.79;84.26
30598;BME280;17365;48.878;8.334;2023-03-11T05:37:25;99360.53;;;0.85;84.19
30598;BME280;17365;48.878;8.334;2023-03-11T05:39:50;99354.56;;;0.85;84.43
30598;BME280;17365;48.878;8.334;2023-03-11T05:42:15;99367.53;;;0.91;84.05
30598;BME280;17365;48.878;8.334;2023-03-11T05:44:41;99370.06;;;0.91;84.20
30598;BME280;17365;48.878;8.334;2023-03-11T05:47:06;99377.25;;;1.04;83.94
30598;BME280;17365;48.878;8.334;2023-03-11T05:49:31;99372.44;;;0.85;84.22
30598;BME280;17365;48.878;8.334;2023-03-11T05:51:56;99378.16;;;1.06;83.76
30598;BME280;17365;48.878;8.334;2023-03-11T05:54:22;99371.16;;;1.31;82.79
30598;BME280;17365;48.878;8.334;2023-03-11T05:56:47;99375.06;;;1.18;83.76
30598;BME280;17365;48.878;8.334;2023-03-11T05:59:13;99383.38;;;1.11;84.13
30598;BME280;17365;48.878;8.334;2023-03-11T06:01:38;99377.59;;;0.86;84.63
30598;BME280;17365;48.878;8.334;2023-03-11T06:04:04;99380.84;;;1.12;83.56
30598;BME280;17365;48.878;8.334;2023-03-11T06:06:29;99368.09;;;1.12;83.18
30598;BME280;17365;48.878;8.334;2023-03-11T06:08:54;99373.31;;;0.85;83.90
30598;BME280;17365;48.878;8.334;2023-03-11T06:11:20;99374.03;;;1.11;83.80
30598;BME280;17365;48.878;8.334;2023-03-11T06:13:45;99368.00;;;1.09;83.76
30598;BME280;17365;48.878;8.334;2023-03-11T06:16:10;99371.56;;;1.14;83.99
30598;BME280;17365;48.878;8.334;2023-03-11T06:18:36;99380.50;;;1.30;83.36
30598;BME280;17365;48.878;8.334;2023-03-11T06:21:01;99381.75;;;1.46;82.58
30598;BME280;17365;48.878;8.334;2023-03-11T06:23:26;99384.63;;;1.58;82.25
30598;BME280;17365;48.878;8.334;2023-03-11T06:28:20;99400.88;;;1.59;81.85
30598;BME280;17365;48.878;8.334;2023-03-11T06:30:46;99403.56;;;1.65;82.01
30598;BME280;17365;48.878;8.334;2023-03-11T06:33:11;99417.06;;;1.59;81.37
30598;BME280;17365;48.878;8.334;2023-03-11T06:35:38;99408.22;;;1.81;80.60
30598;BME280;17365;48.878;8.334;2023-03-11T06:38:03;99417.75;;;1.87;80.60
30598;BME280;17365;48.878;8.334;2023-03-11T06:40:28;99408.47;;;1.57;81.64
30598;BME280;17365;48.878;8.334;2023-03-11T06:42:53;99418.78;;;1.93;80.12
30598;BME280;17365;48.878;8.334;2023-03-11T06:45:19;99405.78;;;1.84;80.86
30598;BME280;17365;48.878;8.334;2023-03-11T06:47:44;99413.00;;;1.67;81.47
30598;BME280;17365;48.878;8.334;2023-03-11T06:50:09;99422.66;;;1.79;80.61
30598;BME280;17365;48.878;8.334;2023-03-11T06:52:34;99428.81;;;1.86;80.40
30598;BME280;17365;48.878;8.334;2023-03-11T06:55:00;99432.38;;;1.92;80.75
30598;BME280;17365;48.878;8.334;2023-03-11T06:57:25;99432.81;;;2.09;80.31
30598;BME280;17365;48.878;8.334;2023-03-11T06:59:51;99430.94;;;2.03;80.90
30598;BME280;17365;48.878;8.334;2023-03-11T07:02:16;99434.47;;;2.07;81.10
30598;BME280;17365;48.878;8.334;2023-03-11T07:04:42;99438.16;;;2.18;80.83
30598;BME280;17365;48.878;8.334;2023-03-11T07:07:07;99448.22;;;2.12;80.64
30598;BME280;17365;48.878;8.334;2023-03-11T07:09:32;99457.09;;;2.26;79.68
30598;BME280;17365;48.878;8.334;2023-03-11T07:11:57;99460.19;;;2.13;79.56
30598;BME280;17365;48.878;8.334;2023-03-11T07:14:22;99453.28;;;2.45;78.87
30598;BME280;17365;48.878;8.334;2023-03-11T07:16:48;99464.69;;;2.22;79.04
30598;BME280;17365;48.878;8.334;2023-03-11T07:19:13;99468.56;;;2.41;78.63
30598;BME280;17365;48.878;8.334;2023-03-11T07:21:40;99467.50;;;2.32;76.68
30598;BME280;17365;48.878;8.334;2023-03-11T07:24:05;99458.28;;;2.39;76.28
30598;BME280;17365;48.878;8.334;2023-03-11T07:26:31;99466.53;;;2.63;76.72
30598;BME280;17365;48.878;8.334;2023-03-11T07:28:57;99473.72;;;2.80;75.24
30598;BME280;17365;48.878;8.334;2023-03-11T07:31:23;99475.84;;;2.98;74.48
30598;BME280;17365;48.878;8.334;2023-03-11T07:33:49;99484.00;;;3.20;74.05
30598;BME280;17365;48.878;8.334;2023-03-11T07:36:16;99484.63;;;3.09;72.95
30598;BME280;17365;48.878;8.334;2023-03-11T07:38:41;99486.09;;;2.98;73.23
30598;BME280;17365;48.878;8.334;2023-03-11T07:41:07;99488.38;;;3.25;73.33
30598;BME280;17365;48.878;8.334;2023-03-11T07:43:33;99498.13;;;2.64;73.81
30598;BME280;17365;48.878;8.334;2023-03-11T07:46:04;99492.84;;;2.58;74.74
30598;BME280;17365;48.878;8.334;2023-03-11T07:48:30;99498.69;;;2.88;73.51
30598;BME280;17365;48.878;8.334;2023-03-11T07:50:59;99500.44;;;3.29;72.46
30598;BME280;17365;48.878;8.334;2023-03-11T07:53:24;99506.34;;;3.28;72.94
30598;BME280;17365;48.878;8.334;2023-03-11T07:55:54;99500.97;;;3.56;71.01
30598;BME280;17365;48.878;8.334;2023-03-11T07:58:19;99506.09;;;3.56;70.10
30598;BME280;17365;48.878;8.334;2023-03-11T08:00:44;99506.81;;;3.08;71.95
30598;BME280;17365;48.878;8.334;2023-03-11T08:03:09;99513.16;;;2.86;72.31
30598;BME280;17365;48.878;8.334;2023-03-11T08:05:34;99515.47;;;2.76;73.45
30598;BME280;17365;48.878;8.334;2023-03-11T08:08:00;99517.63;;;2.95;71.97
30598;BME280;17365;48.878;8.334;2023-03-11T08:10:25;99522.78;;;3.36;69.36
30598;BME280;17365;48.878;8.334;2023-03-11T08:12:50;99522.03;;;3.84;68.07
30598;BME280;17365;48.878;8.334;2023-03-11T08:15:15;99520.94;;;3.72;68.05
30598;BME280;17365;48.878;8.334;2023-03-11T08:17:40;99522.13;;;3.46;69.31
30598;BME280;17365;48.878;8.334;2023-03-11T08:20:06;99519.84;;;4.03;68.25
30598;BME280;17365;48.878;8.334;2023-03-11T08:22:32;99521.56;;;4.04;63.68
30598;BME280;17365;48.878;8.334;2023-03-11T08:24:58;99535.16;;;3.55;64.61
30598;BME280;17365;48.878;8.334;2023-03-11T08:27:23;99520.81;;;4.08;65.28
30598;BME280;17365;48.878;8.334;2023-03-11T08:29:48;99524.97;;;4.03;64.18
30598;BME280;17365;48.878;8.334;2023-03-11T08:32:13;99523.19;;;3.56;64.24
30598;BME280;17365;48.878;8.334;2023-03-11T08:34:38;99514.25;;;4.26;64.83
30598;BME280;17365;48.878;8.334;2023-03-11T08:37:04;99501.56;;;4.33;63.31
30598;BME280;17365;48.878;8.334;2023-03-11T08:39:29;99510.00;;;4.28;63.27
30598;BME280;17365;48.878;8.334;2023-03-11T08:41:54;99516.41;;;4.53;63.17
30598;BME280;17365;48.878;8.334;2023-03-11T08:44:19;99514.56;;;4.99;60.82
30598;BME280;17365;48.878;8.334;2023-03-11T08:46:45;99526.94;;;4.18;61.02
30598;BME280;17365;48.878;8.334;2023-03-11T08:49:10;99531.38;;;3.80;63.61
30598;BME280;17365;48.878;8.334;2023-03-11T08:51:35;99537.50;;;3.44;65.24
30598;BME280;17365;48.878;8.334;2023-03-11T08:54:00;99541.94;;;3.14;66.92
30598;BME280;17365;48.878;8.334;2023-03-11T08:56:26;99540.66;;;3.33;66.67
30598;BME280;17365;48.878;8.334;2023-03-11T08:58:51;99544.34;;;3.06;66.73
30598;BME280;17365;48.878;8.334;2023-03-11T09:01:17;99552.56;;;3.29;66.55
30598;BME280;17365;48.878;8.334;2023-03-11T09:03:44;99549.03;;;3.65;64.40
30598;BME280;17365;48.878;8.334;2023-03-11T09:06:10;99552.69;;;3.37;63.97
30598;BME280;17365;48.878;8.334;2023-03-11T09:08:37;99550.31;;;3.85;64.60
30598;BME280;17365;48.878;8.334;2023-03-11T09:11:02;99553.53;;;4.72;63.31
30598;BME280;17365;48.878;8.334;2023-03-11T09:13:28;99554.28;;;4.16;61.14
30598;BME280;17365;48.878;8.334;2023-03-11T09:15:53;99554.63;;;3.88;60.92
30598;BME280;17365;48.878;8.334;2023-03-11T09:18:18;99550.13;;;4.73;60.88
30598;BME280;17365;48.878;8.334;2023-03-11T09:20:44;99549.03;;;5.11;58.85
30598;BME280;17365;48.878;8.334;2023-03-11T09:23:10;99548.75;;;4.94;57.84
30598;BME280;17365;48.878;8.334;2023-03-11T09:25:36;99540.66;;;5.26;57.29
30598;BME280;17365;48.878;8.334;2023-03-11T09:28:01;99542.09;;;5.07;57.12
30598;BME280;17365;48.878;8.334;2023-03-11T09:30:26;99545.00;;;5.30;56.16
30598;BME280;17365;48.878;8.334;2023-03-11T09:32:52;99550.28;;;5.41;55.10
30598;BME280;17365;48.878;8.334;2023-03-11T09:35:17;99546.28;;;5.63;54.23
30598;BME280;17365;48.878;8.334;2023-03-11T09:37:42;99537.19;;;5.22;54.98
30598;BME280;17365;48.878;8.334;2023-03-11T09:40:09;99544.97;;;5.95;53.53
30598;BME280;17365;48.878;8.334;2023-03-11T09:42:41;99537.19;;;5.89;52.68
30598;BME280;17365;48.878;8.334;2023-03-11T09:45:14;99540.94;;;6.17;51.78
30598;BME280;17365;48.878;8.334;2023-03-11T09:52:39;99535.44;;;6.76;51.04
30598;BME280;17365;48.878;8.334;2023-03-11T09:55:12;99537.34;;;7.01;51.58
30598;BME280;17365;48.878;8.334;2023-03-11T09:57:42;99542.09;;;5.72;52.63
30598;BME280;17365;48.878;8.334;2023-03-11T10:00:09;99535.25;;;5.09;54.69
30598;BME280;17365;48.878;8.334;2023-03-11T10:02:35;99541.69;;;5.39;52.51
30598;BME280;17365;48.878;8.334;2023-03-11T10:05:08;99541.47;;;5.22;53.31
30598;BME280;17365;48.878;8.334;2023-03-11T10:07:38;99541.28;;;5.76;51.04
30598;BME280;17365;48.878;8.334;2023-03-11T10:10:04;99538.13;;;5.94;53.05
30598;BME280;17365;48.878;8.334;2023-03-11T10:17:34;99539.81;;;5.94;51.47
30598;BME280;17365;48.878;8.334;2023-03-11T10:20:05;99541.88;;;6.27;50.82
30598;BME280;17365;48.878;8.334;2023-03-11T10:22:43;99536.97;;;5.72;51.30
30598;BME280;17365;48.878;8.334;2023-03-11T10:32:39;99531.94;;;5.16;53.21
30598;BME280;17365;48.878;8.334;2023-03-11T10:35:14;99529.41;;;5.19;52.12
30598;BME280;17365;48.878;8.334;2023-03-11T10:37:41;99528.22;;;4.97;51.10
30598;BME280;17365;48.878;8.334;2023-03-11T10:43:03;99533.66;;;5.16;51.92
30598;BME280;17365;48.878;8.334;2023-03-11T10:45:33;99543.78;;;5.05;48.35
30598;BME280;17365;48.878;8.334;2023-03-11T10:48:00;99534.63;;;5.22;47.53
30598;BME280;17365;48.878;8.334;2023-03-11T10:50:25;99540.69;;;4.72;46.19
30598;BME280;17365;48.878;8.334;2023-03-11T10:53:11;99538.81;;;5.17;45.38
30598;BME280;17365;48.878;8.334;2023-03-11T10:55:43;99545.81;;;5.26;46.72
30598;BME280;17365;48.878;8.334;2023-03-11T10:58:20;99533.50;;;5.70;48.15
30598;BME280;17365;48.878;8.334;2023-03-11T11:00:49;99550.13;;;5.30;49.41
30598;BME280;17365;48.878;8.334;2023-03-11T11:03:23;99544.53;;;4.98;51.18
30598;BME280;17365;48.878;8.334;2023-03-11T11:05:55;99547.16;;;5.01;51.52
30598;BME280;17365;48.878;8.334;2023-03-11T11:08:21;99544.84;;;5.88;49.55
30598;BME280;17365;48.878;8.334;2023-03-11T11:13:16;99539.78;;;4.68;50.62
30598;BME280;17365;48.878;8.334;2023-03-11T11:18:26;99539.28;;;4.90;51.50
30598;BME280;17365;48.878;8.334;2023-03-11T11:20:54;99541.06;;;4.96;51.78
30598;BME280;17365;48.878;8.334;2023-03-11T11:23:24;99542.47;;;5.33;49.31
30598;BME280;17365;48.878;8.334;2023-03-11T11:25:57;99543.53;;;4.88;48.00
30598;BME280;17365;48.878;8.334;2023-03-11T11:28:23;99530.94;;;5.69;47.62
30598;BME280;17365;48.878;8.334;2023-03-11T11:30:58;99528.69;;;5.95;44.05
30598;BME280;17365;48.878;8.334;2023-03-11T11:33:25;99527.19;;;6.18;43.51
30598;BME280;17365;48.878;8.334;2023-03-11T11:35:51;99527.34;;;6.33;43.20
30598;BME280;17365;48.878;8.334;2023-03-11T11:38:17;99525.81;;;6.54;44.85
30598;BME280;17365;48.878;8.334;2023-03-11T11:40:46;99527.34;;;6.33;42.86
30598;BME280;17365;48.878;8.334;2023-03-11T11:43:13;99528.69;;;5.95;42.89
30598;BME280;17365;48.878;8.334;2023-03-11T11:45:41;99517.28;;;5.77;43.57
30598;BME280;17365;48.878;8.334;2023-03-11T11:50:53;99505.38;;;6.75;43.70
30598;BME280;17365;48.878;8.334;2023-03-11T11:53:31;99512.25;;;6.76;43.93
30598;BME280;17365;48.878;8.334;2023-03-11T11:55:58;99511.53;;;6.98;42.31
30598;BME280;17365;48.878;8.334;2023-03-11T11:58:25;99507.31;;;7.13;41.68
30598;BME280;17365;48.878;8.334;2023-03-11T12:00:54;99500.38;;;7.01;41.03
30598;BME280;17365;48.878;8.334;2023-03-11T12:05:51;99501.06;;;6.76;42.89
30598;BME280;17365;48.878;8.334;2023-03-11T12:08:22;99499.16;;;6.50;44.59
30598;BME280;17365;48.878;8.334;2023-03-11T12:16:00;99500.06;;;6.57;43.90
30598;BME280;17365;48.878;8.334;2023-03-11T12:20:54;99499.75;;;6.20;43.62
30598;BME280;17365;48.878;8.334;2023-03-11T12:23:31;99502.63;;;6.55;42.54
30598;BME280;17365;48.878;8.334;2023-03-11T12:28:39;99501.22;;;5.94;43.78
30598;BME280;17365;48.878;8.334;2023-03-11T12:31:08;99493.44;;;6.89;43.22
30598;BME280;17365;48.878;8.334;2023-03-11T12:33:44;99492.31;;;6.57;42.39
30598;BME280;17365;48.878;8.334;2023-03-11T12:39:06;99486.84;;;6.16;43.18
30598;BME280;17365;48.878;8.334;2023-03-11T12:41:42;99498.66;;;5.97;42.76
30598;BME280;17365;48.878;8.334;2023-03-11T12:44:27;99498.03;;;6.21;43.20
30598;BME280;17365;48.878;8.334;2023-03-11T12:51:59;99487.22;;;6.60;42.29
30598;BME280;17365;48.878;8.334;2023-03-11T13:10:10;99479.66;;;6.81;40.92
30598;BME280;17365;48.878;8.334;2023-03-11T13:12:49;99479.66;;;6.84;42.33
30598;BME280;17365;48.878;8.334;2023-03-11T13:17:54;99455.75;;;7.13;41.81
30598;BME280;17365;48.878;8.334;2023-03-11T13:25:42;99475.44;;;6.97;41.83
30598;BME280;17365;48.878;8.334;2023-03-11T13:33:41;99472.72;;;6.74;41.35
30598;BME280;17365;48.878;8.334;2023-03-11T13:41:40;99489.38;;;7.25;40.10
30598;BME280;17365;48.878;8.334;2023-03-11T13:43:59;99480.72;;;7.23;40.49
30598;BME280;17365;48.878;8.334;2023-03-11T13:46:38;99493.38;;;6.80;39.07
30598;BME280;17365;48.878;8.334;2023-03-11T13:51:44;99485.84;;;7.12;39.69
30598;BME280;17365;48.878;8.334;2023-03-11T13:56:49;99481.28;;;6.68;38.73
30598;BME280;17365;48.878;8.334;2023-03-11T13:59:22;99474.56;;;6.96;38.64
30598;BME280;17365;48.878;8.334;2023-03-11T14:04:32;99472.66;;;6.68;38.84
30598;BME280;17365;48.878;8.334;2023-03-11T14:06:58;99475.41;;;6.92;38.88
30598;BME280;17365;48.878;8.334;2023-03-11T14:09:25;99478.94;;;7.08;39.30
30598;BME280;17365;48.878;8.334;2023-03-11T14:11:54;99480.88;;;7.50;39.15
30598;BME280;17365;48.878;8.334;2023-03-11T14:14:26;99485.00;;;7.15;39.34
30598;BME280;17365;48.878;8.334;2023-03-11T14:16:54;99484.31;;;7.58;38.93
30598;BME280;17365;48.878;8.334;2023-03-11T14:19:20;99474.81;;;7.36;37.92
30598;BME280;17365;48.878;8.334;2023-03-11T14:21:46;99484.31;;;7.58;38.88
30598;BME280;17365;48.878;8.334;2023-03-11T14:24:21;99483.28;;;7.17;37.68
30598;BME280;17365;48.878;8.334;2023-03-11T14:26:47;99483.97;;;6.85;37.43
30598;BME280;17365;48.878;8.334;2023-03-11T14:29:17;99469.59;;;7.30;39.19
30598;BME280;17365;48.878;8.334;2023-03-11T14:31:43;99475.75;;;7.64;39.08
30598;BME280;17365;48.878;8.334;2023-03-11T14:39:21;99466.41;;;8.16;38.16
30598;BME280;17365;48.878;8.334;2023-03-11T14:41:46;99471.47;;;7.77;37.07
30598;BME280;17365;48.878;8.334;2023-03-11T14:44:12;99469.66;;;7.45;38.80
30598;BME280;17365;48.878;8.334;2023-03-11T14:46:38;99474.75;;;7.27;39.20
30598;BME280;17365;48.878;8.334;2023-03-11T14:49:03;99479.16;;;7.51;39.35
30598;BME280;17365;48.878;8.334;2023-03-11T14:51:30;99477.47;;;7.64;39.68
30598;BME280;17365;48.878;8.334;2023-03-11T14:54:03;99485.22;;;7.62;39.27
30598;BME280;17365;48.878;8.334;2023-03-11T14:56:30;99477.50;;;7.80;38.17